Time;durP1;ratioP1;P1;durP2;ratioP2;P2;SDS_P1;SDS_P2;PMS_P1;PMS_P2;Temp;Humidity;BMP_temperature;BMP_pressure;BME280_temperature;BME280_humidity;BME280_pressure;Samples;Min_cycle;Max_cycle;Signal;HPM_P1;HPM_P2
2023/08/14 00:04:08;;;;;;;1.30;1.30;;;;;;;;;;10371710;28;20030;-50
2023/08/14 00:09:08;;;;;;;1.95;1.33;;;;;;;;;;10371485;28;20149;-49
2023/08/14 00:14:09;;;;;;;1.20;1.10;;;;;;;;;;10371384;28;20022;-53
2023/08/14 00:19:09;;;;;;;1.38;1.27;;;;;;;;;;10371080;28;20108;-50
2023/08/14 00:24:10;;;;;;;1.42;1.13;;;;;;;;;;10370904;28;20033;-50
2023/08/14 00:29:10;;;;;;;1.50;1.40;;;;;;;;;;10370810;28;20096;-52
2023/08/14 00:34:11;;;;;;;1.20;1.20;;;;;;;;;;10370569;28;20033;-51
2023/08/14 00:39:12;;;;;;;1.08;1.08;;;;;;;;;;10370148;28;20120;-51
2023/08/14 00:44:12;;;;;;;1.20;1.10;;;;;;;;;;10370295;28;20030;-58
2023/08/14 00:49:13;;;;;;;1.30;1.25;;;;;;;;;;10370274;28;20030;-50
2023/08/14 00:54:13;;;;;;;1.30;1.30;;;;;;;;;;10369746;28;20030;-50
2023/08/14 00:59:14;;;;;;;1.40;1.30;;;;;;;;;;10370820;28;20030;-51
2023/08/14 01:04:15;;;;;;;1.27;1.20;;;;;;;;;;10368734;28;20029;-49
2023/08/14 01:09:15;;;;;;;1.15;1.15;;;;;;;;;;10369309;28;20026;-51
2023/08/14 01:14:24;;;;;;;1.23;1.13;;;;;;;;;;10384416;28;20025;-52
2023/08/14 01:19:32;;;;;;;1.10;1.10;;;;;;;;;;10367708;28;20041;-51
2023/08/14 01:24:39;;;;;;;;;;;;;;;;;;10368613;28;20038;-51
2023/08/14 01:29:40;;;;;;;1.10;1.10;;;;;;;;;;10369117;28;20333;-65
2023/08/14 01:34:40;;;;;;;1.30;1.20;;;;;;;;;;10368983;28;20033;-50
2023/08/14 01:39:50;;;;;;;1.30;1.20;;;;;;;;;;10383411;28;20081;-48
2023/08/14 01:44:59;;;;;;;1.20;1.20;;;;;;;;;;10368378;28;20466;-51
2023/08/14 01:50:00;;;;;;;1.20;1.20;;;;;;;;;;10367174;28;20026;-55
2023/08/14 01:55:00;;;;;;;1.10;1.10;;;;;;;;;;10367417;28;20026;-50
2023/08/14 02:00:01;;;;;;;1.27;1.20;;;;;;;;;;10368002;28;20037;-50
2023/08/14 02:05:02;;;;;;;1.10;1.10;;;;;;;;;;10368276;28;20026;-58
2023/08/14 02:10:03;;;;;;;1.05;1.05;;;;;;;;;;10367777;28;20081;-54
2023/08/14 02:15:05;;;;;;;1.30;1.20;;;;;;;;;;10371709;28;20113;-51
2023/08/14 02:20:06;;;;;;;1.38;1.27;;;;;;;;;;10375695;28;20041;-52
2023/08/14 02:25:07;;;;;;;1.38;1.27;;;;;;;;;;10375478;28;20491;-51
2023/08/14 02:30:08;;;;;;;1.15;1.08;;;;;;;;;;10375456;28;20780;-48
2023/08/14 02:35:08;;;;;;;1.00;1.00;;;;;;;;;;10376031;28;20084;-50
2023/08/14 02:40:10;;;;;;;1.30;1.20;;;;;;;;;;10375668;28;20051;-51
2023/08/14 02:45:10;;;;;;;1.15;1.05;;;;;;;;;;10375217;28;20057;-51
2023/08/14 02:50:11;;;;;;;1.13;1.08;;;;;;;;;;10374643;28;20037;-50
2023/08/14 02:55:11;;;;;;;1.20;1.10;;;;;;;;;;10374331;28;20033;-51
2023/08/14 03:00:13;;;;;;;1.20;1.20;;;;;;;;;;10373342;28;20099;-49
2023/08/14 03:05:13;;;;;;;1.40;1.30;;;;;;;;;;10374419;28;20056;-47
2023/08/14 03:10:14;;;;;;;1.20;1.20;;;;;;;;;;10374194;28;20488;-50
2023/08/14 03:15:14;;;;;;;1.20;1.20;;;;;;;;;;10373770;28;20425;-49
2023/08/14 03:20:15;;;;;;;1.30;1.20;;;;;;;;;;10373407;28;20124;-52
2023/08/14 03:25:16;;;;;;;0.98;0.98;;;;;;;;;;10387440;28;20046;-47
2023/08/14 03:30:16;;;;;;;1.10;1.10;;;;;;;;;;10373177;28;20541;-50
2023/08/14 03:35:17;;;;;;;1.08;1.08;;;;;;;;;;10372925;28;20125;-49
2023/08/14 03:40:17;;;;;;;1.63;1.20;;;;;;;;;;10373455;28;20094;-50
2023/08/14 03:45:18;;;;;;;1.33;1.23;;;;;;;;;;10372967;28;20033;-51
2023/08/14 03:50:19;;;;;;;0.90;0.90;;;;;;;;;;10372371;28;20497;-50
2023/08/14 03:55:19;;;;;;;1.00;1.00;;;;;;;;;;10372081;28;20022;-62
2023/08/14 04:00:20;;;;;;;1.10;1.00;;;;;;;;;;10371939;28;20025;-52
2023/08/14 04:05:21;;;;;;;1.10;1.05;;;;;;;;;;10372387;28;20032;-50
2023/08/14 04:10:24;;;;;;;1.25;1.20;;;;;;;;;;10371464;28;20450;-51
2023/08/14 04:15:25;;;;;;;1.20;1.10;;;;;;;;;;10371303;28;20109;-49
2023/08/14 04:20:26;;;;;;;1.00;1.00;;;;;;;;;;10371216;28;20087;-51
2023/08/14 04:25:28;;;;;;;1.10;1.10;;;;;;;;;;10371421;28;20253;-52
2023/08/14 04:30:29;;;;;;;0.93;0.93;;;;;;;;;;10370866;28;20446;-50
2023/08/14 04:35:30;;;;;;;1.00;1.00;;;;;;;;;;10370314;28;20109;-48
2023/08/14 04:40:30;;;;;;;0.98;0.98;;;;;;;;;;10370785;28;20037;-51
2023/08/14 04:45:31;;;;;;;0.90;0.90;;;;;;;;;;10370220;28;20026;-50
2023/08/14 04:50:31;;;;;;;1.02;1.02;;;;;;;;;;10370177;28;20470;-48
2023/08/14 04:55:32;;;;;;;1.35;1.25;;;;;;;;;;10369825;28;20430;-51
2023/08/14 05:00:32;;;;;;;1.73;1.17;;;;;;;;;;10370766;28;20458;-48
2023/08/14 05:05:33;;;;;;;0.90;0.90;;;;;;;;;;10370614;28;20457;-50
2023/08/14 05:10:33;;;;;;;1.20;1.15;;;;;;;;;;10369398;28;20573;-50
2023/08/14 05:15:37;;;;;;;1.10;1.10;;;;;;;;;;10369259;28;20481;-51
2023/08/14 05:20:38;;;;;;;1.08;1.08;;;;;;;;;;10367884;28;20397;-49
2023/08/14 05:25:40;;;;;;;1.23;1.23;;;;;;;;;;10368822;28;20026;-49
2023/08/14 05:30:45;;;;;;;1.17;1.08;;;;;;;;;;10368818;28;20057;-50
2023/08/14 05:35:49;;;;;;;1.02;1.02;;;;;;;;;;10386806;23;20054;-59
2023/08/14 05:40:49;;;;;;;1.00;1.00;;;;;;;;;;10368095;28;20501;-58
2023/08/14 05:45:50;;;;;;;1.20;1.10;;;;;;;;;;10368128;28;20037;-58
2023/08/14 05:50:54;;;;;;;1.25;1.15;;;;;;;;;;10368313;28;20026;-59
2023/08/14 05:55:55;;;;;;;1.10;1.10;;;;;;;;;;10368039;28;20026;-59
2023/08/14 06:00:55;;;;;;;0.82;0.82;;;;;;;;;;10368120;28;20485;-58
2023/08/14 06:05:56;;;;;;;0.90;0.90;;;;;;;;;;10367872;28;20022;-59
2023/08/14 06:10:56;;;;;;;0.90;0.90;;;;;;;;;;10368188;28;20041;-59
2023/08/14 06:15:57;;;;;;;1.08;1.08;;;;;;;;;;10367712;28;20041;-60
2023/08/14 06:20:58;;;;;;;1.10;1.10;;;;;;;;;;10367578;28;20049;-58
2023/08/14 06:25:58;;;;;;;1.10;1.10;;;;;;;;;;10367455;28;20390;-58
2023/08/14 06:31:02;;;;;;;1.20;1.20;;;;;;;;;;10367469;28;20362;-58
2023/08/14 06:36:03;;;;;;;1.75;1.10;;;;;;;;;;10367135;28;20125;-58
2023/08/14 06:41:04;;;;;;;0.85;0.85;;;;;;;;;;10367277;28;20029;-59
2023/08/14 06:46:04;;;;;;;1.13;1.13;;;;;;;;;;10367084;28;20037;-58
2023/08/14 06:51:05;;;;;;;1.10;1.10;;;;;;;;;;10367083;28;20072;-59
2023/08/14 06:56:06;;;;;;;0.95;0.95;;;;;;;;;;10367355;28;20042;-58
2023/08/14 07:01:06;;;;;;;1.15;1.10;;;;;;;;;;10369543;28;20030;-59
2023/08/14 07:06:07;;;;;;;1.15;1.15;;;;;;;;;;10374541;28;20155;-59
2023/08/14 07:11:08;;;;;;;1.15;1.10;;;;;;;;;;10373772;28;20054;-59
2023/08/14 07:16:08;;;;;;;1.33;1.23;;;;;;;;;;10373565;28;20116;-59
2023/08/14 07:21:09;;;;;;;1.25;1.20;;;;;;;;;;10373882;28;20030;-59
2023/08/14 07:26:12;;;;;;;1.50;1.40;;;;;;;;;;10373196;28;20249;-58
2023/08/14 07:31:13;;;;;;;1.33;1.27;;;;;;;;;;10373198;28;20026;-58
2023/08/14 07:36:13;;;;;;;1.23;1.15;;;;;;;;;;10373018;28;20042;-59
2023/08/14 07:41:14;;;;;;;1.55;1.35;;;;;;;;;;10372684;28;20037;-59
2023/08/14 07:46:15;;;;;;;1.27;1.17;;;;;;;;;;10373062;28;20101;-59
2023/08/14 07:51:15;;;;;;;1.40;1.30;;;;;;;;;;10372476;28;20041;-59
2023/08/14 07:56:16;;;;;;;2.55;1.20;;;;;;;;;;10372098;28;20030;-59
2023/08/14 08:01:17;;;;;;;1.48;1.38;;;;;;;;;;10371855;28;20036;-58
2023/08/14 08:06:18;;;;;;;1.40;1.30;;;;;;;;;;10372182;28;20088;-58
2023/08/14 08:11:18;;;;;;;2.45;1.55;;;;;;;;;;10369982;28;20433;-58
2023/08/14 08:16:19;;;;;;;1.55;1.38;;;;;;;;;;10371418;28;20026;-58
2023/08/14 08:21:20;;;;;;;1.50;1.40;;;;;;;;;;10371719;28;20033;-59
2023/08/14 08:26:20;;;;;;;1.50;1.40;;;;;;;;;;10371004;28;20030;-59
2023/08/14 08:31:21;;;;;;;1.40;1.30;;;;;;;;;;10370854;28;20030;-58
2023/08/14 08:36:21;;;;;;;1.30;1.20;;;;;;;;;;10370359;28;20399;-59
2023/08/14 08:41:29;;;;;;;1.50;1.40;;;;;;;;;;10370342;28;20029;-58
2023/08/14 08:46:34;;;;;;;1.45;1.30;;;;;;;;;;10370705;28;20068;-59
2023/08/14 08:51:37;;;;;;;1.50;1.40;;;;;;;;;;10370156;28;20030;-58
2023/08/14 08:56:37;;;;;;;1.40;1.30;;;;;;;;;;10369795;28;20482;-58
2023/08/14 09:01:40;;;;;;;1.65;1.40;;;;;;;;;;10368395;28;20034;-58
2023/08/14 09:06:41;;;;;;;1.30;1.20;;;;;;;;;;10370033;28;20057;-59
2023/08/14 09:11:41;;;;;;;1.50;1.40;;;;;;;;;;10368233;28;20068;-59
2023/08/14 09:16:43;;;;;;;1.42;1.33;;;;;;;;;;10369670;28;20026;-58
2023/08/14 09:21:45;;;;;;;1.50;1.40;;;;;;;;;;10369131;28;20112;-58
2023/08/14 09:26:47;;;;;;;1.58;1.48;;;;;;;;;;10368270;28;20509;-58
2023/08/14 09:31:47;;;;;;;1.40;1.30;;;;;;;;;;10367781;28;20037;-58
2023/08/14 09:36:48;;;;;;;1.67;1.58;;;;;;;;;;10368377;28;20433;-59
2023/08/14 09:41:49;;;;;;;1.40;1.30;;;;;;;;;;10369020;28;20037;-59
2023/08/14 09:46:54;;;;;;;1.60;1.50;;;;;;;;;;10368339;28;20377;-59
2023/08/14 09:51:58;;;;;;;1.60;1.48;;;;;;;;;;10368374;28;20474;-58
2023/08/14 09:57:05;;;;;;;1.70;1.60;;;;;;;;;;10368530;28;20022;-58
2023/08/14 10:02:15;;;;;;;2.87;1.57;;;;;;;;;;10368236;28;20057;-59
2023/08/14 10:07:23;;;;;;;2.85;1.50;;;;;;;;;;10367384;28;20069;-58
2023/08/14 10:12:33;;;;;;;1.40;1.30;;;;;;;;;;10367918;28;20030;-58
2023/08/14 10:17:43;;;;;;;2.25;1.77;;;;;;;;;;10367149;28;20284;-59
2023/08/14 10:22:45;;;;;;;2.30;1.50;;;;;;;;;;10367753;28;20032;-58
2023/08/14 10:27:46;;;;;;;1.20;1.20;;;;;;;;;;10368098;28;20053;-58
2023/08/14 10:32:47;;;;;;;1.83;1.35;;;;;;;;;;10367583;28;20061;-58
2023/08/14 10:37:49;;;;;;;1.50;1.40;;;;;;;;;;10373861;28;20046;-59
2023/08/14 10:42:56;;;;;;;1.65;1.48;;;;;;;;;;10375494;28;20117;-58
2023/08/14 10:48:08;;;;;;;1.45;1.35;;;;;;;;;;10374897;28;20026;-59
2023/08/14 10:53:10;;;;;;;1.83;1.40;;;;;;;;;;10373699;28;20033;-59
2023/08/14 10:58:31;;;;;;;1.60;1.50;;;;;;;;;;10374415;28;20374;-59
2023/08/14 11:04:04;;;;;;;2.13;1.92;;;;;;;;;;10374971;28;20121;-58
2023/08/14 11:09:05;;;;;;;1.75;1.65;;;;;;;;;;10375121;28;20034;-59
2023/08/14 11:14:06;;;;;;;1.80;1.70;;;;;;;;;;10374018;28;20022;-59
2023/08/14 11:19:07;;;;;;;1.60;1.50;;;;;;;;;;10373808;28;20030;-59
2023/08/14 11:24:11;;;;;;;1.42;1.30;;;;;;;;;;10373415;28;20291;-59
2023/08/14 11:29:11;;;;;;;1.45;1.35;;;;;;;;;;10373966;28;20025;-58
2023/08/14 11:34:12;;;;;;;2.80;1.20;;;;;;;;;;10373607;28;20026;-58
2023/08/14 11:39:13;;;;;;;2.22;1.80;;;;;;;;;;10372781;28;20045;-58
2023/08/14 11:44:14;;;;;;;1.92;1.70;;;;;;;;;;10373336;28;20025;-59
2023/08/14 11:49:16;;;;;;;2.00;1.90;;;;;;;;;;10372354;28;20277;-58
2023/08/14 11:54:17;;;;;;;1.50;1.40;;;;;;;;;;10372393;28;20586;-59
2023/08/14 11:59:18;;;;;;;1.80;1.70;;;;;;;;;;10372199;28;20032;-58
2023/08/14 12:04:20;;;;;;;1.77;1.67;;;;;;;;;;10371971;28;20030;-59
2023/08/14 12:09:28;;;;;;;2.78;1.70;;;;;;;;;;10371662;28;20102;-59
2023/08/14 12:14:43;;;;;;;1.60;1.50;;;;;;;;;;10372135;28;20057;-59
2023/08/14 12:19:53;;;;;;;2.03;1.90;;;;;;;;;;10371735;28;20066;-58
2023/08/14 12:24:54;;;;;;;1.80;1.70;;;;;;;;;;10370574;28;20022;-58
2023/08/14 12:29:56;;;;;;;2.00;1.80;;;;;;;;;;10371619;28;20105;-59
2023/08/14 12:34:56;;;;;;;1.83;1.60;;;;;;;;;;10371020;28;20050;-59
2023/08/14 12:39:57;;;;;;;1.60;1.50;;;;;;;;;;10370563;28;20030;-59
2023/08/14 12:44:57;;;;;;;1.70;1.60;;;;;;;;;;10370915;28;20370;-58
2023/08/14 12:49:58;;;;;;;1.70;1.60;;;;;;;;;;10371240;28;20068;-58
2023/08/14 12:54:59;;;;;;;1.40;1.30;;;;;;;;;;10370069;28;20258;-58
2023/08/14 12:59:59;;;;;;;1.70;1.60;;;;;;;;;;10369902;28;20041;-58
2023/08/14 13:05:00;;;;;;;1.60;1.50;;;;;;;;;;10369746;28;20030;-59
2023/08/14 13:10:01;;;;;;;3.38;1.95;;;;;;;;;;10369420;28;20018;-58
2023/08/14 13:15:01;;;;;;;2.17;1.95;;;;;;;;;;10369901;28;20096;-59
2023/08/14 13:20:02;;;;;;;5.22;1.75;;;;;;;;;;10369208;28;20029;-58
2023/08/14 13:25:03;;;;;;;2.15;1.85;;;;;;;;;;10368900;28;20026;-58
2023/08/14 13:30:05;;;;;;;2.63;1.60;;;;;;;;;;10368991;28;20065;-59
2023/08/14 13:35:06;;;;;;;1.85;1.75;;;;;;;;;;10368976;28;20038;-58
2023/08/14 13:40:08;;;;;;;1.70;1.60;;;;;;;;;;10369012;28;20088;-59
2023/08/14 13:45:09;;;;;;;4.50;1.67;;;;;;;;;;10369383;28;20034;-59
2023/08/14 13:50:10;;;;;;;1.70;1.60;;;;;;;;;;10368966;28;20056;-59
2023/08/14 13:55:11;;;;;;;1.73;1.63;;;;;;;;;;10368261;28;20029;-58
2023/08/14 14:00:12;;;;;;;1.65;1.55;;;;;;;;;;10368129;28;20386;-58
2023/08/14 14:05:13;;;;;;;1.85;1.70;;;;;;;;;;10368014;28;20378;-58
2023/08/14 14:10:13;;;;;;;1.90;1.80;;;;;;;;;;10371142;28;20033;-59
2023/08/14 14:15:14;;;;;;;1.77;1.67;;;;;;;;;;10376775;28;20103;-59
2023/08/14 14:20:15;;;;;;;1.95;1.75;;;;;;;;;;10376011;28;20034;-58
2023/08/14 14:25:16;;;;;;;1.70;1.60;;;;;;;;;;10375895;28;20164;-59
2023/08/14 14:30:17;;;;;;;1.70;1.60;;;;;;;;;;10375782;28;20528;-59
2023/08/14 14:35:17;;;;;;;1.52;1.42;;;;;;;;;;10375370;28;20131;-59
2023/08/14 14:40:18;;;;;;;1.77;1.67;;;;;;;;;;10375177;28;20550;-59
2023/08/14 14:45:19;;;;;;;1.80;1.70;;;;;;;;;;10375652;28;20021;-58
2023/08/14 14:50:28;;;;;;;2.10;1.77;;;;;;;;;;10375161;28;20028;-59
2023/08/14 14:55:30;;;;;;;1.95;1.65;;;;;;;;;;10374236;28;20133;-59
2023/08/14 15:00:31;;;;;;;2.88;2.30;;;;;;;;;;10374509;28;20030;-58
2023/08/14 15:05:33;;;;;;;2.45;2.25;;;;;;;;;;10374302;28;20068;-58
2023/08/14 15:10:37;;;;;;;5.22;2.30;;;;;;;;;;10374151;28;20026;-59
2023/08/14 15:15:38;;;;;;;5.93;3.22;;;;;;;;;;10373925;28;20053;-59
2023/08/14 15:20:39;;;;;;;3.65;3.35;;;;;;;;;;10372519;28;20068;-58
2023/08/14 15:25:39;;;;;;;4.85;4.20;;;;;;;;;;10373901;28;20496;-60
2023/08/14 15:30:41;;;;;;;4.57;3.83;;;;;;;;;;10373343;28;20358;-59
2023/08/14 15:35:42;;;;;;;4.32;3.92;;;;;;;;;;10372897;28;20046;-58
2023/08/14 15:40:47;;;;;;;5.65;4.20;;;;;;;;;;10372904;28;20038;-59
2023/08/14 15:45:48;;;;;;;8.13;4.32;;;;;;;;;;10372830;28;20489;-59
2023/08/14 15:50:50;;;;;;;6.68;4.60;;;;;;;;;;10373012;28;20026;-58
2023/08/14 15:55:50;;;;;;;5.18;4.32;;;;;;;;;;10372304;28;20026;-59
2023/08/14 16:00:51;;;;;;;6.95;4.47;;;;;;;;;;10372167;28;20030;-59
2023/08/14 16:05:57;;;;;;;8.68;4.25;;;;;;;;;;10372597;28;20026;-59
2023/08/14 16:10:58;;;;;;;7.47;4.72;;;;;;;;;;10372048;28;20061;-59
2023/08/14 16:15:58;;;;;;;12.90;4.57;;;;;;;;;;10370977;28;20022;-59
2023/08/14 16:20:59;;;;;;;5.60;4.45;;;;;;;;;;10371321;28;20029;-59
2023/08/14 16:25:59;;;;;;;6.00;4.57;;;;;;;;;;10372023;28;20277;-59
2023/08/14 16:31:01;;;;;;;6.50;5.32;;;;;;;;;;10371065;28;20034;-59
2023/08/14 16:36:01;;;;;;;10.65;5.60;;;;;;;;;;10370223;28;20065;-59
2023/08/14 16:41:02;;;;;;;6.78;5.05;;;;;;;;;;10371007;28;20121;-59
2023/08/14 16:46:03;;;;;;;6.57;5.18;;;;;;;;;;10370777;28;20034;-59
2023/08/14 16:51:05;;;;;;;6.18;4.95;;;;;;;;;;10370465;28;20049;-59
2023/08/14 16:56:05;;;;;;;6.15;5.07;;;;;;;;;;10370230;28;20037;-59
2023/08/14 17:01:06;;;;;;;5.30;4.75;;;;;;;;;;10369759;28;20458;-59
2023/08/14 17:06:06;;;;;;;6.18;4.80;;;;;;;;;;10370005;28;20025;-59
2023/08/14 17:11:07;;;;;;;6.82;4.50;;;;;;;;;;10369815;28;20262;-59
2023/08/14 17:16:10;;;;;;;6.63;5.00;;;;;;;;;;10369320;28;20033;-59
2023/08/14 17:21:11;;;;;;;7.60;5.13;;;;;;;;;;10369660;28;20065;-59
2023/08/14 17:26:12;;;;;;;7.65;4.90;;;;;;;;;;10368683;28;20022;-59
2023/08/14 17:31:14;;;;;;;14.40;5.10;;;;;;;;;;10368635;28;20022;-58
2023/08/14 17:36:15;;;;;;;6.68;4.35;;;;;;;;;;10368084;28;20371;-59
2023/08/14 17:41:15;;;;;;;8.25;3.65;;;;;;;;;;10368369;28;20030;-59
2023/08/14 17:46:16;;;;;;;6.97;3.85;;;;;;;;;;10367941;28;20253;-58
2023/08/14 17:51:16;;;;;;;7.82;3.55;;;;;;;;;;10368142;28;20030;-59
2023/08/14 17:56:17;;;;;;;14.23;4.10;;;;;;;;;;10368423;28;20036;-59
2023/08/14 18:01:18;;;;;;;6.15;3.90;;;;;;;;;;10367691;28;20030;-59
2023/08/14 18:06:18;;;;;;;6.88;3.65;;;;;;;;;;10367661;28;20029;-59
2023/08/14 18:11:19;;;;;;;10.00;4.18;;;;;;;;;;10367600;28;20026;-60
2023/08/14 18:16:20;;;;;;;6.80;3.78;;;;;;;;;;10367523;28;20029;-59
2023/08/14 18:21:21;;;;;;;5.00;3.67;;;;;;;;;;10367432;28;20068;-58
2023/08/14 18:26:21;;;;;;;5.40;3.30;;;;;;;;;;10367871;28;20030;-59
2023/08/14 18:31:22;;;;;;;5.63;3.08;;;;;;;;;;10367336;28;20069;-59
2023/08/14 18:36:23;;;;;;;4.50;3.40;;;;;;;;;;10367006;28;20050;-59
2023/08/14 18:41:23;;;;;;;9.57;3.83;;;;;;;;;;10367012;28;20029;-59
2023/08/14 18:46:25;;;;;;;8.35;3.95;;;;;;;;;;10366991;28;20045;-59
2023/08/14 18:51:26;;;;;;;6.00;4.18;;;;;;;;;;10367001;28;20477;-60
2023/08/14 18:56:27;;;;;;;11.57;4.00;;;;;;;;;;10369326;28;20022;-59
2023/08/14 19:01:27;;;;;;;8.25;4.18;;;;;;;;;;10372989;28;20026;-59
2023/08/14 19:06:29;;;;;;;6.20;3.72;;;;;;;;;;10373194;28;20036;-59
2023/08/14 19:11:30;;;;;;;6.68;3.90;;;;;;;;;;10374216;28;20104;-59
2023/08/14 19:16:30;;;;;;;8.07;3.85;;;;;;;;;;10373524;28;20474;-59
2023/08/14 19:21:31;;;;;;;6.45;3.88;;;;;;;;;;10373316;28;20532;-59
2023/08/14 19:26:31;;;;;;;9.30;3.97;;;;;;;;;;10373106;28;20022;-59
2023/08/14 19:31:34;;;;;;;4.63;4.03;;;;;;;;;;10373523;28;20018;-59
2023/08/14 19:36:35;;;;;;;4.53;3.65;;;;;;;;;;10372907;28;20517;-59
2023/08/14 19:41:35;;;;;;;6.22;3.47;;;;;;;;;;10372535;28;20033;-59
2023/08/14 19:46:36;;;;;;;7.85;3.90;;;;;;;;;;10372237;28;20034;-59
2023/08/14 19:51:36;;;;;;;4.03;3.63;;;;;;;;;;10372132;28;20029;-59
2023/08/14 19:56:37;;;;;;;3.80;3.28;;;;;;;;;;10371955;28;20026;-59
2023/08/14 20:01:37;;;;;;;4.57;3.78;;;;;;;;;;10372270;28;20033;-59
2023/08/14 20:06:38;;;;;;;5.90;3.58;;;;;;;;;;10370798;28;20523;-59
2023/08/14 20:11:39;;;;;;;6.28;3.35;;;;;;;;;;10371776;28;20026;-59
2023/08/14 20:16:40;;;;;;;3.95;3.28;;;;;;;;;;10371194;28;20048;-59
2023/08/14 20:21:41;;;;;;;5.57;3.45;;;;;;;;;;10371304;28;20072;-59
2023/08/14 20:26:41;;;;;;;3.85;3.13;;;;;;;;;;10370582;28;20030;-58
2023/08/14 20:31:42;;;;;;;4.07;3.42;;;;;;;;;;10369520;28;20496;-59
2023/08/14 20:36:42;;;;;;;5.57;3.65;;;;;;;;;;10370633;28;20421;-59
2023/08/14 20:41:43;;;;;;;4.65;3.70;;;;;;;;;;10370504;28;20394;-59
2023/08/14 20:46:44;;;;;;;3.65;3.30;;;;;;;;;;10369812;28;20030;-59
2023/08/14 20:51:44;;;;;;;4.47;3.28;;;;;;;;;;10369368;28;20022;-58
2023/08/14 20:56:45;;;;;;;7.53;3.75;;;;;;;;;;10369065;28;20030;-59
2023/08/14 21:01:45;;;;;;;6.35;3.72;;;;;;;;;;10369186;28;20037;-59
2023/08/14 21:06:46;;;;;;;5.55;3.40;;;;;;;;;;10369000;28;20026;-59
2023/08/14 21:11:47;;;;;;;5.07;3.58;;;;;;;;;;10369370;28;20244;-59
2023/08/14 21:16:47;;;;;;;5.07;2.97;;;;;;;;;;10368687;28;20109;-59
2023/08/14 21:21:48;;;;;;;4.35;3.10;;;;;;;;;;10367560;28;20030;-59
2023/08/14 21:26:48;;;;;;;5.75;3.25;;;;;;;;;;10368832;28;20472;-59
2023/08/14 21:31:49;;;;;;;5.13;3.33;;;;;;;;;;10368251;28;20441;-64
2023/08/14 21:36:49;;;;;;;6.40;3.42;;;;;;;;;;10367603;28;20433;-59
2023/08/14 21:41:50;;;;;;;7.88;3.30;;;;;;;;;;10368811;28;20037;-59
2023/08/14 21:46:51;;;;;;;3.67;3.05;;;;;;;;;;10368774;28;20026;-59
2023/08/14 21:51:51;;;;;;;4.50;3.20;;;;;;;;;;10368339;28;20026;-59
2023/08/14 21:56:52;;;;;;;4.25;3.30;;;;;;;;;;10367493;28;20033;-61
2023/08/14 22:01:54;;;;;;;5.25;3.05;;;;;;;;;;10367934;28;20083;-59
2023/08/14 22:06:55;;;;;;;5.00;3.33;;;;;;;;;;10367834;28;20480;-65
2023/08/14 22:11:55;;;;;;;3.45;3.15;;;;;;;;;;10367791;28;20037;-59
2023/08/14 22:16:56;;;;;;;5.93;2.70;;;;;;;;;;10367159;28;20108;-59
2023/08/14 22:21:56;;;;;;;3.72;2.97;;;;;;;;;;10367005;28;20394;-59
2023/08/14 22:26:57;;;;;;;4.97;3.10;;;;;;;;;;10367391;28;20030;-59
2023/08/14 22:31:58;;;;;;;4.53;3.65;;;;;;;;;;10371636;28;20454;-59
2023/08/14 22:36:58;;;;;;;4.03;2.95;;;;;;;;;;10374672;28;20421;-59
2023/08/14 22:41:59;;;;;;;3.83;3.00;;;;;;;;;;10375517;28;20041;-59
2023/08/14 22:46:59;;;;;;;7.40;3.22;;;;;;;;;;10374849;28;20026;-59
2023/08/14 22:52:00;;;;;;;5.13;3.20;;;;;;;;;;10374282;28;20030;-59
2023/08/14 22:57:01;;;;;;;5.78;3.28;;;;;;;;;;10374555;28;20022;-59
2023/08/14 23:02:01;;;;;;;3.55;3.25;;;;;;;;;;10373779;28;20026;-59
2023/08/14 23:07:02;;;;;;;6.25;3.00;;;;;;;;;;10374227;28;20030;-59
2023/08/14 23:12:02;;;;;;;4.30;3.10;;;;;;;;;;10373616;28;20406;-59
2023/08/14 23:17:03;;;;;;;4.95;3.03;;;;;;;;;;10373816;28;20417;-59
2023/08/14 23:22:03;;;;;;;4.20;3.00;;;;;;;;;;10373091;28;20033;-59
2023/08/14 23:27:04;;;;;;;6.00;3.33;;;;;;;;;;10373054;28;20053;-59
2023/08/14 23:32:05;;;;;;;3.05;2.67;;;;;;;;;;10372945;28;20068;-59
2023/08/14 23:37:06;;;;;;;3.50;3.17;;;;;;;;;;10372423;28;20050;-59
2023/08/14 23:42:06;;;;;;;3.55;3.25;;;;;;;;;;10371922;28;20034;-61
2023/08/14 23:47:07;;;;;;;4.03;3.10;;;;;;;;;;10372704;28;20046;-58
2023/08/14 23:52:07;;;;;;;3.55;2.65;;;;;;;;;;10372618;28;20018;-59
2023/08/14 23:57:08;;;;;;;5.78;3.05;;;;;;;;;;10372005;28;20034;-59
